Time;durP1;ratioP1;P1;durP2;ratioP2;P2;SDS_P1;SDS_P2;PMS_P1;PMS_P2;Temp;Humidity;BMP_temperature;BMP_pressure;BME280_temperature;BME280_humidity;BME280_pressure;Samples;Min_cycle;Max_cycle;Signal;HPM_P1;HPM_P2
2022/06/12 00:00:39;;;;;;;9.05;2.70;;;;;;;11.77;89.22;102012.84;4990319;28;20199;-50
2022/06/12 00:03:08;;;;;;;7.47;2.63;;;;;;;11.65;88.96;102012.19;4990207;28;20205;-48
2022/06/12 00:05:37;;;;;;;8.40;2.90;;;;;;;11.72;89.13;102018.34;4993500;28;20539;-49
2022/06/12 00:08:05;;;;;;;7.32;2.92;;;;;;;11.74;89.25;102021.84;4994459;28;20628;-49
2022/06/12 00:10:31;;;;;;;10.70;3.30;;;;;;;11.76;89.03;102020.00;4994132;28;20196;-49
2022/06/12 00:12:57;;;;;;;7.78;2.97;;;;;;;11.77;88.97;102019.09;4993822;28;20252;-50
2022/06/12 00:15:27;;;;;;;8.98;2.60;;;;;;;11.68;89.01;102019.31;4993748;28;20696;-50
2022/06/12 00:17:53;;;;;;;7.93;2.70;;;;;;;11.62;89.24;102019.47;4993812;28;20657;-49
2022/06/12 00:20:22;;;;;;;12.65;2.97;;;;;;;11.32;89.84;102029.97;4976620;28;20182;-50
2022/06/12 00:22:48;;;;;;;14.05;2.95;;;;;;;11.42;90.65;102020.81;4993938;28;20501;-51
2022/06/12 00:25:17;;;;;;;9.57;2.65;;;;;;;11.37;90.94;102028.09;4975713;28;20283;-47
2022/06/12 00:27:43;;;;;;;8.13;2.53;;;;;;;11.36;90.78;102015.56;4993973;28;20305;-48
2022/06/12 00:30:12;;;;;;;10.93;3.03;;;;;;;11.22;91.04;102028.41;4976189;28;20173;-47
2022/06/12 00:32:38;;;;;;;7.40;2.55;;;;;;;11.29;91.52;102020.19;4993836;28;20185;-46
2022/06/12 00:35:07;;;;;;;7.15;2.53;;;;;;;10.96;91.40;102027.16;4992983;28;20219;-49
2022/06/12 00:37:34;;;;;;;7.25;2.70;;;;;;;10.97;91.95;102028.03;4993578;28;20268;-49
2022/06/12 00:39:59;;;;;;;8.18;2.58;;;;;;;10.87;92.32;102022.88;4993750;28;20181;-47
2022/06/12 00:42:30;;;;;;;11.68;2.78;;;;;;;10.93;92.48;102032.56;4993523;28;20346;-47
2022/06/12 00:44:58;;;;;;;10.15;3.08;;;;;;;10.89;92.21;102025.53;4975708;28;20894;-47
2022/06/12 00:47:24;;;;;;;7.00;2.50;;;;;;;10.95;92.52;102030.75;4975847;28;20197;-48
2022/06/12 00:49:52;;;;;;;8.00;2.95;;;;;;;10.98;92.25;102030.69;4993605;28;20186;-48
2022/06/12 00:52:22;;;;;;;5.93;2.72;;;;;;;10.95;91.63;102038.78;4992209;28;20189;-47
2022/06/12 00:54:51;;;;;;;6.63;2.50;;;;;;;10.88;91.97;102032.66;4992679;28;20570;-47
2022/06/12 00:57:19;;;;;;;7.78;2.67;;;;;;;10.80;91.96;102023.00;4993221;28;20264;-46
2022/06/12 00:59:55;;;;;;;5.43;2.67;;;;;;;10.84;92.42;102032.75;4993198;28;20574;-49
2022/06/12 01:02:25;;;;;;;10.75;3.15;;;;;;;10.86;92.61;102023.75;4993254;28;20205;-46
2022/06/12 01:07:39;;;;;;;9.73;2.88;;;;;;;10.87;92.57;102030.03;4984906;28;20186;-49
2022/06/12 01:10:09;;;;;;;7.95;2.70;;;;;;;10.89;92.23;102037.13;4992572;28;20189;-47
2022/06/12 01:12:43;;;;;;;5.90;2.42;;;;;;;10.96;91.80;102029.84;4993009;28;20185;-49
2022/06/12 01:15:29;;;;;;;10.88;3.05;;;;;;;10.87;91.90;102040.75;4991606;28;20695;-48
2022/06/12 01:17:57;;;;;;;9.02;2.80;;;;;;;10.71;92.33;102037.47;4993014;28;20185;-48
2022/06/12 01:20:27;;;;;;;8.30;2.47;;;;;;;10.71;93.12;102033.03;4992557;28;20241;-47
2022/06/12 01:23:04;;;;;;;8.10;2.83;;;;;;;10.74;93.05;102033.88;4992060;28;20169;-50
2022/06/12 01:26:07;;;;;;;7.07;2.45;;;;;;;10.82;93.42;102029.22;4992750;28;20688;-48
2022/06/12 01:28:41;;;;;;;7.72;2.65;;;;;;;10.87;93.07;102032.72;4992354;28;20546;-49
2022/06/12 01:31:40;;;;;;;7.18;2.92;;;;;;;10.66;93.24;102031.31;4991995;28;20667;-48
2022/06/12 01:34:19;;;;;;;7.47;2.55;;;;;;;10.77;93.52;102023.09;4991921;28;20727;-48
2022/06/12 01:37:13;;;;;;;6.40;2.90;;;;;;;10.77;93.34;102023.09;4992630;28;20170;-48
2022/06/12 01:39:38;;;;;;;6.72;2.70;;;;;;;10.79;93.31;102021.25;4992307;28;20205;-49
2022/06/12 01:42:19;;;;;;;6.28;2.13;;;;;;;10.78;93.31;102016.78;4992762;28;20260;-50
2022/06/12 01:45:01;;;;;;;9.38;3.00;;;;;;;10.69;92.95;102010.72;4991626;28;20197;-49
2022/06/12 01:47:51;;;;;;;8.85;2.80;;;;;;;10.60;93.24;102007.31;4992223;28;20819;-48
2022/06/12 01:50:27;;;;;;;6.78;2.97;;;;;;;10.62;93.68;102008.19;4992285;28;20188;-48
2022/06/12 01:53:15;;;;;;;9.95;3.00;;;;;;;10.69;93.96;102004.47;4991902;28;20228;-49
2022/06/12 01:55:45;;;;;;;8.85;2.53;;;;;;;10.78;93.87;101998.03;4991839;28;20253;-47
2022/06/12 01:58:27;;;;;;;10.68;2.50;;;;;;;10.61;93.80;102001.94;4991821;28;20174;-48
2022/06/12 02:01:26;;;;;;;8.10;2.30;;;;;;;10.65;93.86;101995.63;4991810;28;20590;-48
2022/06/12 02:04:05;;;;;;;6.13;2.50;;;;;;;10.80;93.76;102005.16;4968248;28;20244;-49
2022/06/12 02:06:57;;;;;;;9.40;2.72;;;;;;;10.82;93.45;101995.28;4991607;28;20178;-48
2022/06/12 02:09:27;;;;;;;11.43;2.80;;;;;;;10.91;93.36;101992.41;4991887;28;20185;-49
2022/06/12 02:14:56;;;;;;;12.45;3.67;;;;;;;10.96;92.97;101988.75;4991198;28;20209;-48
2022/06/12 02:17:27;;;;;;;10.95;2.47;;;;;;;11.03;93.14;101987.69;4991157;28;20189;-49
2022/06/12 02:19:53;;;;;;;8.38;2.45;;;;;;;10.90;93.22;101984.38;4991424;28;20554;-48
2022/06/12 02:22:24;;;;;;;13.85;3.15;;;;;;;10.95;93.63;101979.78;4991416;28;20170;-48
2022/06/12 02:25:01;;;;;;;8.70;3.10;;;;;;;11.00;93.43;101977.00;4990419;28;20229;-48
2022/06/12 02:27:30;;;;;;;10.20;3.10;;;;;;;10.89;93.73;101983.50;4990266;28;20184;-50
2022/06/12 02:30:11;;;;;;;11.88;3.00;;;;;;;11.00;93.86;101982.38;4973700;28;20252;-48
2022/06/12 02:32:42;;;;;;;13.98;3.15;;;;;;;11.11;93.42;101966.94;4990425;28;20177;-47
2022/06/12 02:35:34;;;;;;;9.38;2.90;;;;;;;11.16;93.05;101973.09;4990087;28;20347;-49
2022/06/12 02:38:05;;;;;;;9.63;3.33;;;;;;;11.13;92.76;101970.50;4990979;28;20292;-49
2022/06/12 02:40:37;;;;;;;9.63;2.97;;;;;;;11.11;92.78;101970.50;4991121;28;20193;-49
2022/06/12 02:43:15;;;;;;;11.18;3.03;;;;;;;11.12;92.96;101966.03;4990351;28;20188;-48
2022/06/12 02:46:06;;;;;;;15.98;3.63;;;;;;;11.11;93.10;101966.94;4990635;28;20201;-49
2022/06/12 02:48:32;;;;;;;9.02;2.75;;;;;;;11.19;93.08;101964.09;4990709;28;20644;-51
2022/06/12 02:51:24;;;;;;;10.05;2.88;;;;;;;11.16;92.73;101973.09;4990920;28;20196;-51
2022/06/12 02:54:19;;;;;;;13.73;3.70;;;;;;;11.19;93.24;101967.66;4972669;28;20166;-51
2022/06/12 02:57:10;;;;;;;11.07;3.10;;;;;;;11.28;93.03;101964.78;4990708;28;20619;-49
2022/06/12 03:00:19;;;;;;;13.95;3.13;;;;;;;11.29;92.69;101960.28;4990039;28;20596;-48
2022/06/12 03:03:06;;;;;;;14.43;3.10;;;;;;;11.38;92.52;101954.69;4990452;28;20166;-49
2022/06/12 03:05:36;;;;;;;16.05;3.63;;;;;;;11.38;92.44;101948.47;4985716;28;20369;-49
2022/06/12 03:08:06;;;;;;;15.32;3.28;;;;;;;11.45;92.37;101947.38;4990313;28;20243;-48
2022/06/12 03:10:39;;;;;;;12.95;3.40;;;;;;;11.44;92.13;101956.38;4989919;28;20224;-50
2022/06/12 03:13:08;;;;;;;14.93;3.50;;;;;;;11.45;92.09;101945.56;4984425;28;20268;-48
2022/06/12 03:15:51;;;;;;;13.50;3.92;;;;;;;11.55;91.96;101943.56;4983180;28;20216;-49
2022/06/12 03:18:29;;;;;;;13.20;3.75;;;;;;;11.63;91.77;101938.00;4990550;28;20232;-49
2022/06/12 03:21:06;;;;;;;14.85;3.60;;;;;;;11.65;91.68;101944.22;4990209;28;20666;-51
2022/06/12 03:23:42;;;;;;;13.30;3.72;;;;;;;11.63;91.59;101930.84;4990095;28;20276;-51
2022/06/12 03:26:12;;;;;;;13.77;3.40;;;;;;;11.68;91.87;101938.78;4990738;28;20184;-50
2022/06/12 03:28:51;;;;;;;13.27;3.45;;;;;;;11.73;91.98;101944.91;4990700;28;20257;-49
2022/06/12 03:31:45;;;;;;;15.63;4.13;;;;;;;11.80;92.24;101940.25;4990715;28;20175;-48
2022/06/12 03:34:37;;;;;;;13.65;4.05;;;;;;;11.83;91.97;101946.44;4989339;28;20200;-49
2022/06/12 03:37:09;;;;;;;18.55;4.05;;;;;;;11.83;91.84;101945.53;4979967;28;20208;-49
2022/06/12 03:39:42;;;;;;;16.73;4.20;;;;;;;11.75;92.12;101948.44;4994233;28;20272;-49
2022/06/12 03:42:18;;;;;;;9.95;3.75;;;;;;;11.83;92.48;101940.16;4996726;28;20176;-51
2022/06/12 03:45:07;;;;;;;13.20;3.63;;;;;;;11.84;92.62;101955.38;4996307;28;20612;-48
2022/06/12 03:47:36;;;;;;;16.20;4.45;;;;;;;11.84;92.69;101953.56;4980072;28;20189;-48
2022/06/12 03:50:13;;;;;;;18.05;3.85;;;;;;;11.92;92.62;101954.28;4996849;28;20192;-50
2022/06/12 03:53:06;;;;;;;18.35;4.03;;;;;;;12.03;92.52;101953.16;4996809;28;20280;-49
2022/06/12 03:58:34;;;;;;;15.00;3.53;;;;;;;12.15;92.33;101948.28;4997268;28;20201;-48
2022/06/12 04:01:01;;;;;;;13.70;3.75;;;;;;;12.26;91.99;101947.13;4996475;28;20189;-50
2022/06/12 04:03:32;;;;;;;17.77;3.80;;;;;;;12.31;91.70;101947.88;4996439;28;20161;-47
2022/06/12 04:06:02;;;;;;;9.13;3.70;;;;;;;12.34;91.17;101953.19;4996961;28;20194;-49
2022/06/12 04:08:33;;;;;;;12.27;3.65;;;;;;;12.38;90.96;101944.13;4996758;28;20490;-49
2022/06/12 04:11:00;;;;;;;20.23;4.10;;;;;;;12.41;91.03;101953.91;4996774;28;20652;-49
2022/06/12 04:13:25;;;;;;;15.57;4.30;;;;;;;12.41;91.11;101940.47;4978630;28;20185;-50
2022/06/12 04:16:01;;;;;;;17.85;4.10;;;;;;;12.50;91.13;101945.56;4996759;28;20217;-49
2022/06/12 04:18:28;;;;;;;16.13;3.92;;;;;;;12.52;90.87;101951.78;4996881;28;20268;-48
2022/06/12 04:21:03;;;;;;;14.38;4.13;;;;;;;12.55;90.75;101946.31;4979547;28;20816;-52
2022/06/12 04:24:05;;;;;;;13.93;3.60;;;;;;;12.60;90.89;101947.09;4996612;28;20255;-49
2022/06/12 04:26:31;;;;;;;14.25;3.40;;;;;;;12.64;90.66;101940.69;4978820;28;20187;-52
2022/06/12 04:29:16;;;;;;;14.38;4.80;;;;;;;12.73;90.66;101951.19;4996830;28;20565;-49
2022/06/12 04:31:47;;;;;;;13.23;3.72;;;;;;;12.81;90.33;101933.91;4996678;28;20185;-49
2022/06/12 04:34:17;;;;;;;20.20;4.75;;;;;;;12.84;90.07;101936.53;4996154;28;20591;-50
2022/06/12 04:36:48;;;;;;;17.80;5.03;;;;;;;12.88;89.95;101936.41;4996409;28;20193;-50
2022/06/12 04:39:17;;;;;;;19.90;4.53;;;;;;;12.94;89.48;101938.00;4997241;28;20199;-49
2022/06/12 04:41:43;;;;;;;14.70;3.97;;;;;;;12.89;89.82;101942.66;4996424;28;20211;-49
2022/06/12 04:44:12;;;;;;;13.43;4.05;;;;;;;12.94;89.73;101946.97;4995821;28;20204;-49
2022/06/12 04:46:41;;;;;;;18.27;5.10;;;;;;;13.10;89.35;101944.69;4996790;28;20765;-49
2022/06/12 04:49:10;;;;;;;12.35;4.07;;;;;;;13.22;88.83;101942.53;4996095;28;20185;-49
2022/06/12 04:51:35;;;;;;;19.13;4.88;;;;;;;13.28;88.88;101936.97;4992900;28;20166;-48
2022/06/12 04:54:01;;;;;;;12.48;4.28;;;;;;;13.36;88.65;101929.56;4992818;28;20205;-50
2022/06/12 04:56:30;;;;;;;16.42;4.40;;;;;;;13.50;88.36;101926.41;4993539;28;20206;-49
2022/06/12 04:58:55;;;;;;;21.92;4.80;;;;;;;13.51;87.88;101921.00;4993599;28;20169;-49
2022/06/12 05:01:23;;;;;;;14.18;4.35;;;;;;;13.67;86.98;101923.19;4993002;28;20605;-49
2022/06/12 05:03:48;;;;;;;15.95;4.35;;;;;;;13.73;86.77;101918.47;4992694;28;20169;-49
2022/06/12 05:06:16;;;;;;;19.25;4.75;;;;;;;13.86;86.60;101921.59;4993060;28;20219;-50
2022/06/12 05:08:42;;;;;;;15.85;5.03;;;;;;;13.93;85.88;101920.47;4993272;28;20208;-49
2022/06/12 05:11:08;;;;;;;13.75;4.18;;;;;;;13.97;85.91;101914.03;4993010;28;20187;-50
2022/06/12 05:13:34;;;;;;;13.68;3.85;;;;;;;14.14;85.83;101912.56;4992668;28;20547;-49
2022/06/12 05:16:00;;;;;;;14.43;4.22;;;;;;;14.15;85.33;101923.28;4992804;28;20217;-49
2022/06/12 05:18:26;;;;;;;13.52;3.83;;;;;;;14.24;84.70;101916.69;4992788;28;20172;-50
2022/06/12 05:20:52;;;;;;;17.88;4.32;;;;;;;14.49;84.26;101913.06;4992960;28;20284;-50
2022/06/12 05:23:20;;;;;;;19.92;4.28;;;;;;;14.53;83.67;101918.28;4992393;28;20221;-48
2022/06/12 05:25:45;;;;;;;16.48;4.43;;;;;;;14.50;83.71;101913.03;4992916;28;20204;-50
2022/06/12 05:28:16;;;;;;;15.73;3.75;;;;;;;14.59;83.61;101914.53;4992689;28;20174;-49
2022/06/12 05:30:43;;;;;;;17.42;4.20;;;;;;;14.77;83.06;101913.81;4992580;28;20189;-51
2022/06/12 05:33:09;;;;;;;15.50;3.55;;;;;;;14.73;81.96;101905.91;4992498;28;20533;-48
2022/06/12 05:35:37;;;;;;;13.85;4.22;;;;;;;14.73;82.39;101893.28;4992383;28;20213;-49
2022/06/12 05:38:03;;;;;;;17.73;4.05;;;;;;;14.85;82.43;101900.06;4992760;28;20567;-50
2022/06/12 05:40:32;;;;;;;12.65;3.40;;;;;;;14.94;81.17;101890.72;4992782;28;20188;-48
2022/06/12 05:42:58;;;;;;;11.55;3.00;;;;;;;14.99;81.24;101900.38;4988209;28;20779;-50
2022/06/12 05:45:26;;;;;;;16.33;3.22;;;;;;;15.07;80.57;101900.09;4976290;28;20201;-48
2022/06/12 05:47:55;;;;;;;12.82;3.67;;;;;;;15.25;80.21;101893.94;4990503;28;20208;-49
2022/06/12 05:50:25;;;;;;;12.63;3.03;;;;;;;15.41;80.22;101901.41;4991993;28;20185;-50
2022/06/12 05:52:50;;;;;;;13.20;3.47;;;;;;;15.38;78.78;101896.13;4992432;28;20180;-49
2022/06/12 05:55:16;;;;;;;13.77;3.33;;;;;;;15.50;79.04;101903.72;4991871;28;20201;-50
2022/06/12 05:57:42;;;;;;;15.80;3.20;;;;;;;15.61;78.24;101903.25;4991750;28;20199;-47
2022/06/12 06:00:16;;;;;;;11.05;2.85;;;;;;;15.75;77.81;101897.31;4992514;28;20185;-48
2022/06/12 06:02:42;;;;;;;14.60;3.15;;;;;;;15.93;78.07;101899.22;4991590;28;20231;-48
2022/06/12 06:05:08;;;;;;;11.70;3.40;;;;;;;15.97;76.83;101898.16;4991934;28;20225;-48
2022/06/12 06:07:35;;;;;;;12.32;3.42;;;;;;;16.23;75.89;101899.69;4991992;28;20231;-51
2022/06/12 06:10:03;;;;;;;10.82;3.25;;;;;;;16.58;74.66;101899.91;4992065;28;20653;-48
2022/06/12 06:12:29;;;;;;;12.85;3.70;;;;;;;16.54;74.75;101883.91;4991778;28;20173;-48
2022/06/12 06:14:54;;;;;;;11.80;3.22;;;;;;;16.84;73.30;101879.78;4991230;28;20652;-47
2022/06/12 06:17:20;;;;;;;10.05;3.45;;;;;;;17.17;72.53;101870.09;4992219;28;20229;-49
2022/06/12 06:19:45;;;;;;;16.83;3.50;;;;;;;17.49;70.77;101876.59;4991733;28;20220;-51
2022/06/12 06:22:15;;;;;;;12.75;3.22;;;;;;;17.46;70.43;101876.75;4991607;28;20169;-50
2022/06/12 06:24:42;;;;;;;13.68;3.38;;;;;;;17.71;70.31;101873.69;4991794;28;20586;-48
2022/06/12 06:27:09;;;;;;;12.07;3.20;;;;;;;17.85;69.93;101870.28;4991188;28;20169;-47
2022/06/12 06:29:36;;;;;;;17.23;3.63;;;;;;;17.36;69.36;101870.94;4991581;28;20215;-47
2022/06/12 06:32:03;;;;;;;10.77;3.35;;;;;;;17.44;71.66;101884.97;4990962;28;20184;-47
2022/06/12 06:34:28;;;;;;;12.43;3.50;;;;;;;17.71;71.10;101877.28;4991118;28;20205;-47
2022/06/12 06:36:54;;;;;;;12.02;3.17;;;;;;;18.00;69.75;101876.75;4991017;28;20204;-46
2022/06/12 06:39:20;;;;;;;13.27;3.25;;;;;;;18.29;69.80;101875.19;4973632;28;20181;-48
2022/06/12 06:41:45;;;;;;;11.45;3.10;;;;;;;18.39;69.95;101875.56;4991396;28;20181;-52
2022/06/12 06:46:55;;;;;;;11.82;3.22;;;;;;;18.76;68.36;101865.38;4991337;28;20216;-47
2022/06/12 06:49:21;;;;;;;13.65;3.30;;;;;;;18.55;68.55;101870.19;4990775;28;20177;-47
2022/06/12 06:51:47;;;;;;;12.18;3.17;;;;;;;18.88;67.83;101881.91;4991282;28;20217;-47
2022/06/12 06:54:12;;;;;;;13.63;3.40;;;;;;;19.11;67.50;101863.41;4990102;28;20752;-47
2022/06/12 06:56:38;;;;;;;10.15;3.13;;;;;;;19.18;67.62;101862.09;4990895;28;20201;-48
2022/06/12 06:59:03;;;;;;;10.20;3.05;;;;;;;19.45;65.67;101856.00;4991481;28;20260;-48
2022/06/12 07:01:29;;;;;;;12.35;3.05;;;;;;;19.36;66.02;101865.59;4989904;28;20607;-49
2022/06/12 07:03:54;;;;;;;14.93;4.57;;;;;;;19.51;65.21;101869.25;4990448;28;20347;-48
2022/06/12 07:06:21;;;;;;;11.57;2.78;;;;;;;19.86;64.41;101866.28;4972935;28;20173;-46
2022/06/12 07:08:47;;;;;;;12.88;3.20;;;;;;;19.34;66.05;101871.09;4990487;28;20204;-47
2022/06/12 07:11:12;;;;;;;12.32;3.08;;;;;;;19.79;65.09;101862.16;4990081;28;20173;-47
2022/06/12 07:13:38;;;;;;;11.07;3.13;;;;;;;19.54;64.44;101858.19;4972070;28;20206;-47
2022/06/12 07:16:04;;;;;;;13.73;3.15;;;;;;;19.32;63.65;101861.28;4990723;28;20204;-48
2022/06/12 07:18:29;;;;;;;12.07;2.63;;;;;;;19.95;63.62;101863.00;4990632;28;20276;-47
2022/06/12 07:20:57;;;;;;;10.68;3.08;;;;;;;20.47;63.12;101858.88;4990852;28;20165;-46
2022/06/12 07:23:24;;;;;;;10.07;3.20;;;;;;;19.72;62.58;101862.56;4989634;28;20174;-45
2022/06/12 07:25:55;;;;;;;8.32;2.45;;;;;;;19.50;63.71;101857.50;4989085;28;20595;-48
2022/06/12 07:28:22;;;;;;;9.23;2.60;;;;;;;19.75;62.32;101862.38;4990117;28;20173;-45
2022/06/12 07:30:50;;;;;;;10.45;2.60;;;;;;;19.19;62.57;101855.69;4990355;28;20169;-48
2022/06/12 07:33:17;;;;;;;10.40;2.70;;;;;;;19.29;64.41;101848.75;4990162;28;20216;-47
2022/06/12 07:35:44;;;;;;;10.02;2.78;;;;;;;19.36;63.71;101860.16;4989982;28;20649;-46
2022/06/12 07:38:12;;;;;;;6.93;2.15;;;;;;;19.58;63.50;101857.03;4990468;28;20676;-48
2022/06/12 07:40:47;;;;;;;12.38;3.13;;;;;;;19.49;61.49;101847.56;4990514;28;20201;-47
2022/06/12 07:43:13;;;;;;;13.23;2.53;;;;;;;20.02;62.22;101853.47;4989824;28;20189;-46
2022/06/12 07:45:41;;;;;;;10.52;3.05;;;;;;;20.04;61.57;101851.53;4990454;28;20247;-47
2022/06/12 07:48:07;;;;;;;9.45;2.42;;;;;;;19.53;62.13;101860.03;4989827;28;20182;-45
2022/06/12 07:50:33;;;;;;;6.47;2.33;;;;;;;19.25;63.09;101862.63;4989894;28;20272;-47
2022/06/12 07:52:59;;;;;;;8.02;2.45;;;;;;;19.82;61.58;101856.56;4972647;28;20264;-47
2022/06/12 07:55:26;;;;;;;7.78;2.63;;;;;;;19.94;61.05;101848.53;4986723;28;20603;-47
2022/06/12 07:57:52;;;;;;;7.93;2.53;;;;;;;20.19;60.36;101859.75;4968781;28;20418;-48
2022/06/12 08:00:18;;;;;;;12.13;2.53;;;;;;;20.68;59.29;101843.88;4987398;28;20178;-48
2022/06/12 08:02:46;;;;;;;9.02;2.67;;;;;;;20.54;58.19;101842.03;4985552;28;20192;-47
2022/06/12 08:05:13;;;;;;;10.57;2.28;;;;;;;19.62;60.74;101841.41;4989836;28;20221;-47
2022/06/12 08:07:39;;;;;;;8.38;2.33;;;;;;;20.73;59.85;101849.94;4990215;28;20169;-48
2022/06/12 08:10:05;;;;;;;7.78;2.40;;;;;;;20.88;58.82;101841.72;4990088;28;20231;-47
2022/06/12 08:12:33;;;;;;;9.38;2.38;;;;;;;21.18;58.15;101841.53;4988639;28;20173;-47
2022/06/12 08:14:59;;;;;;;11.10;2.25;;;;;;;21.04;58.87;101844.34;4989366;28;20576;-46
2022/06/12 08:17:24;;;;;;;10.93;3.10;;;;;;;21.32;58.22;101848.81;4989901;28;20166;-46
2022/06/12 08:22:35;;;;;;;11.43;2.60;;;;;;;21.44;58.32;101833.50;4988895;28;20176;-46
2022/06/12 08:25:00;;;;;;;8.57;2.60;;;;;;;21.54;57.32;101838.22;4989490;28;20328;-44
2022/06/12 08:27:26;;;;;;;9.63;2.30;;;;;;;21.10;57.58;101836.63;4993088;28;20717;-46
2022/06/12 08:29:51;;;;;;;8.40;2.55;;;;;;;21.17;58.50;101839.81;4976095;28;20231;-47
2022/06/12 08:32:21;;;;;;;9.88;2.35;;;;;;;21.30;57.66;101842.59;4993349;28;20173;-46
2022/06/12 08:34:55;;;;;;;12.93;2.90;;;;;;;21.27;58.03;101840.06;4975696;28;20295;-48
2022/06/12 08:37:32;;;;;;;10.55;2.63;;;;;;;21.02;58.46;101830.81;4993536;28;20190;-46
2022/06/12 08:39:58;;;;;;;10.10;2.67;;;;;;;21.63;58.54;101827.66;4993231;28;20157;-48
2022/06/12 08:42:31;;;;;;;10.77;2.40;;;;;;;21.50;57.18;101817.59;4993282;28;20188;-47
2022/06/12 08:45:11;;;;;;;9.88;2.55;;;;;;;21.62;58.11;101820.44;4992956;28;20204;-47
2022/06/12 08:47:58;;;;;;;9.65;3.10;;;;;;;21.55;56.53;101820.00;4985469;28;20204;-47
2022/06/12 08:50:37;;;;;;;8.50;2.58;;;;;;;21.73;56.96;101813.25;4973566;28;20185;-47
2022/06/12 08:53:25;;;;;;;8.35;2.30;;;;;;;21.55;57.50;101815.41;4971960;28;20213;-45
2022/06/12 08:55:50;;;;;;;10.13;2.67;;;;;;;22.15;57.63;101803.03;4973387;28;20221;-47
2022/06/12 08:58:19;;;;;;;13.55;3.15;;;;;;;21.97;56.58;101805.22;4972775;28;20173;-46
2022/06/12 09:00:46;;;;;;;8.38;2.35;;;;;;;22.04;55.98;101805.66;4973728;28;20178;-47
2022/06/12 09:03:20;;;;;;;10.25;2.75;;;;;;;21.72;57.02;101807.94;4982153;28;20223;-45
2022/06/12 09:05:48;;;;;;;11.60;2.58;;;;;;;22.18;56.00;101797.34;4993200;28;20195;-48
2022/06/12 09:08:26;;;;;;;10.57;2.85;;;;;;;22.21;54.65;101799.88;4988086;28;20186;-46
2022/06/12 09:11:14;;;;;;;9.32;2.35;;;;;;;22.05;55.43;101801.94;4978395;28;20199;-45
2022/06/12 09:13:52;;;;;;;11.70;2.90;;;;;;;22.10;55.62;101805.19;4991801;28;20550;-46
2022/06/12 09:16:31;;;;;;;11.15;2.53;;;;;;;22.37;54.88;101796.94;4986586;28;20228;-48
2022/06/12 09:19:16;;;;;;;10.27;3.10;;;;;;;21.89;54.29;101798.56;4973371;28;20577;-47
2022/06/12 09:22:09;;;;;;;8.52;2.53;;;;;;;21.86;55.24;101788.72;4972695;28;20731;-47
2022/06/12 09:24:46;;;;;;;9.00;2.10;;;;;;;22.20;54.95;101787.19;4981546;28;20231;-47
2022/06/12 09:27:17;;;;;;;9.13;2.53;;;;;;;22.25;53.67;101783.28;4985667;28;20203;-48
2022/06/12 09:30:04;;;;;;;6.93;2.00;;;;;;;22.55;54.15;101783.78;4992576;28;20224;-48
2022/06/12 09:33:10;;;;;;;9.70;2.78;;;;;;;22.42;54.98;101782.94;4992479;28;20336;-48
2022/06/12 09:36:33;;;;;;;10.40;2.60;;;;;;;23.21;52.37;101777.97;4987828;28;20697;-46
2022/06/12 09:39:52;;;;;;;6.70;2.00;;;;;;;23.08;53.99;101782.66;4943664;28;20243;-46
2022/06/12 09:42:23;;;;;;;8.60;2.42;;;;;;;22.83;53.90;101785.34;4970883;28;20656;-44
2022/06/12 09:45:01;;;;;;;9.15;2.17;;;;;;;22.97;54.09;101787.00;4990168;28;20277;-46
2022/06/12 09:47:38;;;;;;;7.10;2.17;;;;;;;22.38;53.95;101778.69;4992315;28;20560;-46
2022/06/12 09:50:09;;;;;;;9.80;2.40;;;;;;;21.45;55.12;101783.44;4992219;28;20208;-47
2022/06/12 09:52:56;;;;;;;9.98;2.58;;;;;;;21.94;56.06;101777.28;4992335;28;20184;-46
2022/06/12 09:55:22;;;;;;;7.07;2.45;;;;;;;21.65;55.16;101777.47;4991982;28;20306;-47
2022/06/12 09:58:15;;;;;;;7.45;2.00;;;;;;;21.87;54.53;101767.78;4992283;28;20236;-45
2022/06/12 10:01:21;;;;;;;7.63;2.08;;;;;;;21.80;54.08;101768.22;4991948;28;20838;-47
2022/06/12 10:03:49;;;;;;;9.18;2.00;;;;;;;21.47;53.68;101771.47;4988639;28;20214;-44
2022/06/12 10:06:24;;;;;;;7.82;2.30;;;;;;;21.50;54.68;101773.97;4992560;28;20169;-46
2022/06/12 10:09:08;;;;;;;9.63;1.95;;;;;;;22.68;52.86;101766.50;4974070;28;20266;-45
2022/06/12 10:11:38;;;;;;;6.45;2.22;;;;;;;23.34;51.19;101759.63;4992091;28;20671;-46
2022/06/12 10:14:23;;;;;;;7.93;2.47;;;;;;;23.08;51.04;101761.63;4991189;28;20292;-46
2022/06/12 10:16:58;;;;;;;6.38;2.15;;;;;;;23.47;52.00;101758.69;4991585;28;20212;-45
2022/06/12 10:19:28;;;;;;;4.70;1.80;;;;;;;22.91;50.80;101772.94;4991911;28;20176;-45
2022/06/12 10:21:58;;;;;;;5.85;2.25;;;;;;;22.52;50.74;101755.81;4991464;28;20226;-47
2022/06/12 10:24:24;;;;;;;7.47;1.80;;;;;;;22.69;51.57;101751.84;4991076;28;20205;-46
2022/06/12 10:27:03;;;;;;;10.20;2.40;;;;;;;21.85;53.65;101759.69;4974578;28;20562;-45
2022/06/12 10:29:42;;;;;;;8.95;2.20;;;;;;;21.50;53.28;101752.16;4991643;28;20195;-47
2022/06/12 10:32:14;;;;;;;10.57;2.40;;;;;;;22.05;52.16;101751.94;4991440;28;20260;-45
2022/06/12 10:34:39;;;;;;;5.60;1.98;;;;;;;22.60;52.96;101747.94;4991041;28;20275;-45
2022/06/12 10:37:24;;;;;;;7.18;1.98;;;;;;;21.86;53.31;101758.72;4974043;28;20637;-46
2022/06/12 10:40:16;;;;;;;5.47;1.95;;;;;;;21.49;54.53;101749.53;4991447;28;20173;-47
2022/06/12 10:42:48;;;;;;;8.07;2.03;;;;;;;21.43;55.58;101767.19;4991482;28;20239;-45
2022/06/12 10:45:22;;;;;;;7.43;2.20;;;;;;;21.94;56.04;101752.72;4990859;28;20191;-46
2022/06/12 10:47:49;;;;;;;5.93;2.35;;;;;;;22.47;54.34;101742.50;4991015;28;20219;-48
2022/06/12 10:50:34;;;;;;;6.85;2.00;;;;;;;21.64;55.37;101751.16;4973451;28;20175;-47
2022/06/12 10:53:15;;;;;;;8.27;2.40;;;;;;;21.32;55.84;101753.41;4990453;28;20180;-43
2022/06/12 10:56:00;;;;;;;8.77;2.60;;;;;;;22.30;54.13;101743.75;4990938;28;20228;-45
2022/06/12 10:58:47;;;;;;;7.18;2.10;;;;;;;22.29;55.86;101747.47;4991026;28;20181;-47
2022/06/12 11:02:04;;;;;;;9.05;2.50;;;;;;;22.24;54.82;101735.13;4991183;28;20644;-47
2022/06/12 11:04:32;;;;;;;7.55;2.53;;;;;;;22.87;53.91;101742.25;4973253;28;20228;-48
2022/06/12 11:07:03;;;;;;;6.95;2.33;;;;;;;22.67;52.68;101741.00;4991043;28;20245;-46
2022/06/12 11:09:47;;;;;;;5.90;1.98;;;;;;;22.96;51.39;101738.81;4991090;28;20188;-47
2022/06/12 11:12:24;;;;;;;6.22;2.08;;;;;;;22.99;50.08;101726.78;4990722;28;20223;-48
2022/06/12 11:15:21;;;;;;;6.63;2.05;;;;;;;23.76;50.39;101726.31;4990422;28;20620;-46
2022/06/12 11:18:24;;;;;;;5.30;1.83;;;;;;;23.46;50.25;101735.91;4990595;28;20160;-48
2022/06/12 11:20:56;;;;;;;6.97;2.17;;;;;;;21.55;52.57;101741.78;4973506;28;20168;-45
2022/06/12 11:23:40;;;;;;;5.50;1.80;;;;;;;22.68;51.57;101734.56;4990374;28;20215;-44
2022/06/12 11:26:29;;;;;;;6.70;2.10;;;;;;;22.59;51.42;101729.81;4990831;28;20265;-45
2022/06/12 11:29:18;;;;;;;7.40;2.13;;;;;;;23.09;50.16;101736.06;4990187;28;20173;-45
2022/06/12 11:32:07;;;;;;;6.03;1.90;;;;;;;23.09;49.18;101716.94;4990894;28;20524;-45
2022/06/12 11:34:48;;;;;;;7.35;2.38;;;;;;;23.13;47.80;101729.34;4989762;28;20348;-45
2022/06/12 11:37:32;;;;;;;6.80;2.08;;;;;;;23.45;48.83;101723.25;4990395;28;20596;-46
2022/06/12 11:40:38;;;;;;;5.35;2.05;;;;;;;22.83;51.00;101729.81;4990948;28;20193;-46
2022/06/12 11:43:37;;;;;;;5.97;2.25;;;;;;;22.71;51.77;101720.66;4990162;28;20171;-47
2022/06/12 11:46:18;;;;;;;5.78;2.08;;;;;;;21.57;52.85;101730.78;4990411;28;20597;-46
2022/06/12 11:48:44;;;;;;;6.75;2.30;;;;;;;21.56;52.40;101721.72;4990292;28;20231;-46
2022/06/12 11:51:39;;;;;;;7.88;2.47;;;;;;;21.41;52.47;101728.25;4990748;28;20197;-46
2022/06/12 11:54:49;;;;;;;5.40;1.90;;;;;;;21.03;53.56;101742.63;4989779;28;20243;-46
2022/06/12 11:57:29;;;;;;;9.40;2.13;;;;;;;21.07;52.94;101727.81;4990875;28;20188;-46
2022/06/12 12:00:15;;;;;;;4.97;2.05;;;;;;;20.80;53.35;101732.41;4991138;28;20675;-47
2022/06/12 12:02:56;;;;;;;5.75;1.85;;;;;;;21.91;51.43;101737.44;4994572;28;20164;-45
2022/06/12 12:05:29;;;;;;;8.63;2.38;;;;;;;21.91;51.37;101731.09;4993882;28;20291;-44
2022/06/12 12:08:40;;;;;;;6.43;2.10;;;;;;;22.28;50.92;101712.97;4994420;28;20635;-44